KLOL/LOL METAR and TAF weather

Enter ICAO airport designator
Station Type Date Time Source
KLOL METAR 2020/08/15 14:53 UTC NOAA

KLOL 151453Z AUTO 33003KT 10SM CLR 21/07 A3017 RMK AO2 SLP174 T02060072 51013


Station Type Date Time Source
KLOL Decoded METAR 2020/08/15 14:53 UTC NOAA

LOVELOCK DERBY FIELD, NV, United States (KLOL) 40-04N 118-34W 1189M
Aug 15, 2020 - 10:53 AM EDT / 2020.08.15 1453 UTC
Wind: from the NNW (330 degrees) at 3 MPH (3 KT):0
Visibility: 10 mile(s):0
Sky conditions: clear
Temperature: 69.1 F (20.6 C)
Dew Point: 45.0 F (7.2 C)
Relative Humidity: 41%
Pressure (altimeter): 30.17 in. Hg (1021 hPa)
Pressure tendency: 0.04 inches (1.3 hPa) higher than three hours ago
ob: KLOL 151453Z AUTO 33003KT 10SM CLR 21/07 A3017 RMK AO2 SLP174 T02060072 51013
cycle: 15

Station Type Date Time Source
KLOL TAF 2010/01/05 05:22 UTC NOAA

TAF KLOL 050522Z 0506/0606 00000KT 1/4SM FZFG VV001
FM052000 VRB03KT 3SM BR OVC002
AMD NOT SKED

Example: see airport list